Observations for GROTTAGLIE CIV AFB, Italy (LIBG)

LIBG 191750Z VRB02KT CAVOK 18/15 Q1018  
LIBG 191650Z 18003KT CAVOK 20/16 Q1018  
LIBG 191550Z 19006KT CAVOK 22/16 Q1018  
LIBG 191450Z 17006KT 140V200 CAVOK 23/16 Q1018  
LIBG 191350Z 18005KT 120V220 CAVOK 24/14 Q1018  
LIBG 191250Z 20008KT 170V230 9999 FEW030 24/15 Q1018
LIBG 191150Z 18007KT 120V210 9999 FEW030 24/16 Q1018
LIBG 191050Z 16007KT 9999 SCT025 23/17 Q1018
LIBG 190950Z 16007KT 9999 FEW025 23/16 Q1018
LIBG 190850Z 14007KT 110V180 9999 FEW035 22/17 Q1019
LIBG 190750Z 11004KT 9999 FEW035 21/16 Q1019
LIBG 190650Z 00000KT CAVOK 17/16 Q1018  
LIBG 190600Z 00000KT CAVOK 14/13 Q1018 1010